createdAt,value
2019-02-28T21:11:25.516Z,50.20
2019-02-28T21:13:53.816Z,50.70
2019-02-28T21:16:22.212Z,50.90
2019-02-28T21:18:50.586Z,51.00
2019-02-28T21:21:19.111Z,51.00
2019-02-28T21:23:47.617Z,51.30
2019-02-28T21:26:19.485Z,51.20
2019-02-28T21:29:00.945Z,51.60
2019-02-28T21:31:34.499Z,51.80
2019-02-28T21:34:09.836Z,51.80
2019-02-28T21:36:44.131Z,51.80
2019-02-28T21:42:05.067Z,52.10
2019-02-28T21:44:36.522Z,52.10
2019-02-28T21:47:12.622Z,52.30
2019-02-28T21:49:43.548Z,52.40
2019-02-28T21:52:18.028Z,52.40
2019-02-28T21:54:50.056Z,52.60
2019-02-28T21:57:19.716Z,52.60
2019-02-28T21:59:48.110Z,53.00
2019-02-28T22:02:18.609Z,53.40
2019-02-28T22:04:48.163Z,53.40
2019-02-28T22:07:16.485Z,53.70
2019-02-28T22:09:44.853Z,53.80
2019-02-28T22:12:13.212Z,54.90
2019-02-28T22:14:44.558Z,55.30
2019-02-28T22:17:12.880Z,55.00
2019-02-28T22:19:41.244Z,55.70
2019-02-28T22:22:12.549Z,55.90
2019-02-28T22:24:40.880Z,55.70
2019-02-28T22:27:09.248Z,56.10
2019-02-28T22:29:37.707Z,56.00
2019-02-28T22:32:10.263Z,56.00
2019-02-28T22:34:40.194Z,55.90
2019-02-28T22:37:08.489Z,56.20
2019-02-28T22:39:36.800Z,56.90
2019-02-28T22:42:05.123Z,57.40
2019-02-28T22:44:33.556Z,57.50
2019-02-28T22:47:01.840Z,57.60
2019-02-28T22:49:30.141Z,57.80
2019-02-28T22:51:58.542Z,58.00
2019-02-28T22:54:26.987Z,58.90
2019-02-28T22:56:55.451Z,59.00
2019-02-28T22:59:23.838Z,58.80
2019-02-28T23:01:52.268Z,59.50
2019-02-28T23:04:20.609Z,59.70
2019-02-28T23:06:48.905Z,60.20
2019-02-28T23:09:17.304Z,60.60
2019-02-28T23:11:45.693Z,61.00
2019-02-28T23:14:14.003Z,61.00
2019-02-28T23:16:42.370Z,61.20
2019-02-28T23:19:10.727Z,61.20
2019-02-28T23:21:39.023Z,61.60
2019-02-28T23:24:07.370Z,62.30
2019-02-28T23:26:55.179Z,62.60
2019-02-28T23:29:25.270Z,63.00
2019-02-28T23:32:02.751Z,63.00
2019-02-28T23:34:34.300Z,63.10
2019-02-28T23:37:02.615Z,64.10
2019-02-28T23:39:30.903Z,63.70
2019-02-28T23:41:59.198Z,63.70
2019-02-28T23:44:27.479Z,63.40
2019-02-28T23:46:55.782Z,62.90
2019-02-28T23:49:24.100Z,62.50
2019-02-28T23:51:52.473Z,62.50
2019-02-28T23:54:20.860Z,62.10
2019-02-28T23:56:49.231Z,61.80
2019-02-28T23:59:17.535Z,61.50
